sensor_id;sensor_type;location;lat;lon;timestamp;pressure;altitude;pressure_sealevel;temperature;humidity
55263;BME280;41125;48.752;9.168;2023-07-16T00:00:25;96746.09;;;18.17;100.00
55263;BME280;41125;48.752;9.168;2023-07-16T00:00:56;96747.47;;;18.11;100.00
55263;BME280;41125;48.752;9.168;2023-07-16T00:01:27;96755.22;;;18.08;100.00
55263;BME280;41125;48.752;9.168;2023-07-16T00:01:58;96758.31;;;18.07;100.00
55263;BME280;41125;48.752;9.168;2023-07-16T00:02:30;96751.91;;;18.03;100.00
55263;BME280;41125;48.752;9.168;2023-07-16T00:03:02;96758.47;;;17.98;100.00
55263;BME280;41125;48.752;9.168;2023-07-16T00:03:34;96758.94;;;18.00;100.00
55263;BME280;41125;48.752;9.168;2023-07-16T00:04:05;96758.94;;;18.00;100.00
55263;BME280;41125;48.752;9.168;2023-07-16T00:04:37;96765.22;;;18.01;100.00
55263;BME280;41125;48.752;9.168;2023-07-16T00:05:09;96760.53;;;18.01;100.00
55263;BME280;41125;48.752;9.168;2023-07-16T00:05:40;96762.00;;;17.99;100.00
55263;BME280;41125;48.752;9.168;2023-07-16T00:06:11;96752.06;;;17.94;100.00
55263;BME280;41125;48.752;9.168;2023-07-16T00:06:45;96760.28;;;17.94;100.00
55263;BME280;41125;48.752;9.168;2023-07-16T00:07:19;96753.53;;;17.92;100.00
55263;BME280;41125;48.752;9.168;2023-07-16T00:07:51;96757.78;;;17.89;100.00
55263;BME280;41125;48.752;9.168;2023-07-16T00:08:23;96755.72;;;17.86;100.00
55263;BME280;41125;48.752;9.168;2023-07-16T00:08:57;96754.34;;;17.80;100.00
55263;BME280;41125;48.752;9.168;2023-07-16T00:09:28;96750.31;;;17.78;100.00
55263;BME280;41125;48.752;9.168;2023-07-16T00:10:00;96746.31;;;17.75;100.00
55263;BME280;41125;48.752;9.168;2023-07-16T00:10:36;96746.31;;;17.75;100.00
55263;BME280;41125;48.752;9.168;2023-07-16T00:11:07;96744.38;;;17.75;100.00
55263;BME280;41125;48.752;9.168;2023-07-16T00:11:39;96747.13;;;17.75;100.00
55263;BME280;41125;48.752;9.168;2023-07-16T00:12:10;96744.97;;;17.81;100.00
55263;BME280;41125;48.752;9.168;2023-07-16T00:12:41;96743.34;;;17.80;100.00
55263;BME280;41125;48.752;9.168;2023-07-16T00:13:12;96751.81;;;17.75;100.00
55263;BME280;41125;48.752;9.168;2023-07-16T00:13:44;96762.00;;;17.74;100.00
55263;BME280;41125;48.752;9.168;2023-07-16T00:14:17;96759.59;;;17.73;100.00
55263;BME280;41125;48.752;9.168;2023-07-16T00:14:49;96753.28;;;17.72;100.00
55263;BME280;41125;48.752;9.168;2023-07-16T00:15:25;96761.53;;;17.72;100.00
55263;BME280;41125;48.752;9.168;2023-07-16T00:15:56;96754.78;;;17.70;100.00
55263;BME280;41125;48.752;9.168;2023-07-16T00:16:31;96757.53;;;17.70;100.00
55263;BME280;41125;48.752;9.168;2023-07-16T00:17:03;96766.91;;;17.69;100.00
55263;BME280;41125;48.752;9.168;2023-07-16T00:17:34;96761.75;;;17.67;100.00
55263;BME280;41125;48.752;9.168;2023-07-16T00:18:06;96763.34;;;17.68;100.00
55263;BME280;41125;48.752;9.168;2023-07-16T00:18:37;96757.84;;;17.68;100.00
55263;BME280;41125;48.752;9.168;2023-07-16T00:19:10;96754.31;;;17.68;100.00
55263;BME280;41125;48.752;9.168;2023-07-16T00:19:42;96750.78;;;17.67;100.00
55263;BME280;41125;48.752;9.168;2023-07-16T00:20:13;96751.44;;;17.64;100.00
55263;BME280;41125;48.752;9.168;2023-07-16T00:20:44;96743.09;;;17.61;100.00
55263;BME280;41125;48.752;9.168;2023-07-16T00:21:15;96734.88;;;17.61;100.00
55263;BME280;41125;48.752;9.168;2023-07-16T00:21:47;96733.25;;;17.60;100.00
55263;BME280;41125;48.752;9.168;2023-07-16T00:22:19;96728.47;;;17.57;100.00
55263;BME280;41125;48.752;9.168;2023-07-16T00:22:51;96727.66;;;17.56;100.00
55263;BME280;41125;48.752;9.168;2023-07-16T00:23:22;96738.63;;;17.56;100.00
55263;BME280;41125;48.752;9.168;2023-07-16T00:23:53;96722.97;;;17.57;100.00
55263;BME280;41125;48.752;9.168;2023-07-16T00:24:24;96731.66;;;17.59;100.00
55263;BME280;41125;48.752;9.168;2023-07-16T00:24:56;96726.19;;;17.59;100.00
55263;BME280;41125;48.752;9.168;2023-07-16T00:25:27;96738.75;;;17.60;100.00
55263;BME280;41125;48.752;9.168;2023-07-16T00:25:58;96736.81;;;17.60;100.00
55263;BME280;41125;48.752;9.168;2023-07-16T00:26:29;96736.34;;;17.58;100.00
55263;BME280;41125;48.752;9.168;2023-07-16T00:27:00;96737.84;;;17.56;100.00
55263;BME280;41125;48.752;9.168;2023-07-16T00:27:35;96744.91;;;17.57;100.00
55263;BME280;41125;48.752;9.168;2023-07-16T00:28:06;96737.84;;;17.56;100.00
55263;BME280;41125;48.752;9.168;2023-07-16T00:28:38;96742.53;;;17.55;100.00
55263;BME280;41125;48.752;9.168;2023-07-16T00:29:09;96736.22;;;17.55;100.00
55263;BME280;41125;48.752;9.168;2023-07-16T00:29:40;96739.44;;;17.57;100.00
55263;BME280;41125;48.752;9.168;2023-07-16T00:30:12;96744.91;;;17.57;100.00
55263;BME280;41125;48.752;9.168;2023-07-16T00:30:43;96745.59;;;17.54;100.00
55263;BME280;41125;48.752;9.168;2023-07-16T00:31:14;96746.28;;;17.51;100.00
55263;BME280;41125;48.752;9.168;2023-07-16T00:31:45;96744.69;;;17.50;100.00
55263;BME280;41125;48.752;9.168;2023-07-16T00:32:17;96745.47;;;17.50;100.00
55263;BME280;41125;48.752;9.168;2023-07-16T00:32:48;96745.81;;;17.49;100.00
55263;BME280;41125;48.752;9.168;2023-07-16T00:33:19;96750.84;;;17.47;100.00
55263;BME280;41125;48.752;9.168;2023-07-16T00:33:50;96761.81;;;17.47;100.00
55263;BME280;41125;48.752;9.168;2023-07-16T00:34:21;96756.31;;;17.47;100.00
55263;BME280;41125;48.752;9.168;2023-07-16T00:34:53;96760.34;;;17.49;100.00
55263;BME280;41125;48.752;9.168;2023-07-16T00:35:24;96766.97;;;17.48;100.00
55263;BME280;41125;48.752;9.168;2023-07-16T00:35:55;96765.03;;;17.49;100.00
55263;BME280;41125;48.752;9.168;2023-07-16T00:36:26;96767.75;;;17.49;100.00
55263;BME280;41125;48.752;9.168;2023-07-16T00:36:57;96771.66;;;17.48;100.00
55263;BME280;41125;48.752;9.168;2023-07-16T00:37:33;96763.41;;;17.48;100.00
55263;BME280;41125;48.752;9.168;2023-07-16T00:38:05;96767.75;;;17.49;100.00
55263;BME280;41125;48.752;9.168;2023-07-16T00:38:37;96765.81;;;17.49;100.00
55263;BME280;41125;48.752;9.168;2023-07-16T00:39:10;96772.09;;;17.50;100.00
55263;BME280;41125;48.752;9.168;2023-07-16T00:39:42;96765.81;;;17.49;100.00
55263;BME280;41125;48.752;9.168;2023-07-16T00:40:13;96773.72;;;17.51;100.00
55263;BME280;41125;48.752;9.168;2023-07-16T00:40:46;96768.22;;;17.51;100.00
55263;BME280;41125;48.752;9.168;2023-07-16T00:41:17;96768.22;;;17.51;100.00
55263;BME280;41125;48.752;9.168;2023-07-16T00:41:48;96765.94;;;17.53;100.00
55263;BME280;41125;48.752;9.168;2023-07-16T00:42:19;96767.53;;;17.54;100.00
55263;BME280;41125;48.752;9.168;2023-07-16T00:42:51;96767.53;;;17.54;100.00
55263;BME280;41125;48.752;9.168;2023-07-16T00:43:22;96771.91;;;17.55;100.00
55263;BME280;41125;48.752;9.168;2023-07-16T00:43:53;96766.88;;;17.57;100.00
55263;BME280;41125;48.752;9.168;2023-07-16T00:44:25;96771.56;;;17.56;100.00
55263;BME280;41125;48.752;9.168;2023-07-16T00:44:56;96770.75;;;17.56;100.00
55263;BME280;41125;48.752;9.168;2023-07-16T00:45:28;96780.59;;;17.57;100.00
55263;BME280;41125;48.752;9.168;2023-07-16T00:45:59;96778.97;;;17.56;100.00
55263;BME280;41125;48.752;9.168;2023-07-16T00:46:31;96782.53;;;17.56;100.00
55263;BME280;41125;48.752;9.168;2023-07-16T00:47:03;96778.53;;;17.54;100.00
55263;BME280;41125;48.752;9.168;2023-07-16T00:47:35;96772.22;;;17.53;100.00
55263;BME280;41125;48.752;9.168;2023-07-16T00:48:06;96773.03;;;17.54;100.00
55263;BME280;41125;48.752;9.168;2023-07-16T00:48:40;96775.78;;;17.54;100.00
55263;BME280;41125;48.752;9.168;2023-07-16T00:49:15;96773.72;;;17.51;100.00
55263;BME280;41125;48.752;9.168;2023-07-16T00:49:50;96764.56;;;17.47;100.00
55263;BME280;41125;48.752;9.168;2023-07-16T00:50:21;96762.50;;;17.43;100.00
55263;BME280;41125;48.752;9.168;2023-07-16T00:50:53;96762.50;;;17.43;100.00
55263;BME280;41125;48.752;9.168;2023-07-16T00:51:26;96763.28;;;17.44;100.00
55263;BME280;41125;48.752;9.168;2023-07-16T00:51:59;96762.50;;;17.43;100.00
55263;BME280;41125;48.752;9.168;2023-07-16T00:52:31;96760.09;;;17.42;100.00
55263;BME280;41125;48.752;9.168;2023-07-16T00:53:03;96764.78;;;17.41;100.00
55263;BME280;41125;48.752;9.168;2023-07-16T00:53:35;96765.09;;;17.40;100.00
55263;BME280;41125;48.752;9.168;2023-07-16T00:54:07;96769.78;;;17.39;100.00
55263;BME280;41125;48.752;9.168;2023-07-16T00:54:39;96767.06;;;17.39;100.00
55263;BME280;41125;48.752;9.168;2023-07-16T00:55:10;96772.53;;;17.39;100.00
55263;BME280;41125;48.752;9.168;2023-07-16T00:55:42;96774.12;;;17.40;100.00
55263;BME280;41125;48.752;9.168;2023-07-16T00:56:16;96767.84;;;17.40;100.00
55263;BME280;41125;48.752;9.168;2023-07-16T00:56:51;96760.88;;;17.42;100.00
55263;BME280;41125;48.752;9.168;2023-07-16T00:57:23;96759.41;;;17.45;100.00
55263;BME280;41125;48.752;9.168;2023-07-16T00:57:54;96754.03;;;17.49;100.00
55263;BME280;41125;48.752;9.168;2023-07-16T00:58:28;96749.25;;;17.46;100.00
55263;BME280;41125;48.752;9.168;2023-07-16T00:58:59;96759.28;;;17.41;100.00
55263;BME280;41125;48.752;9.168;2023-07-16T00:59:30;96755.28;;;17.39;100.00
55263;BME280;41125;48.752;9.168;2023-07-16T01:00:02;96763.84;;;17.37;100.00
55263;BME280;41125;48.752;9.168;2023-07-16T01:00:39;96762.72;;;17.38;100.00
55263;BME280;41125;48.752;9.168;2023-07-16T01:01:13;96765.44;;;17.38;100.00
55263;BME280;41125;48.752;9.168;2023-07-16T01:01:44;96757.69;;;17.40;100.00
55263;BME280;41125;48.752;9.168;2023-07-16T01:02:16;96770.25;;;17.41;100.00
55263;BME280;41125;48.752;9.168;2023-07-16T01:02:47;96773.00;;;17.41;100.00
55263;BME280;41125;48.752;9.168;2023-07-16T01:03:18;96766.03;;;17.44;100.00
55263;BME280;41125;48.752;9.168;2023-07-16T01:03:50;96775.06;;;17.45;100.00
55263;BME280;41125;48.752;9.168;2023-07-16T01:04:21;96771.19;;;17.46;100.00
55263;BME280;41125;48.752;9.168;2023-07-16T01:04:53;96768.91;;;17.48;100.00
55263;BME280;41125;48.752;9.168;2023-07-16T01:05:27;96774.84;;;17.50;100.00
55263;BME280;41125;48.752;9.168;2023-07-16T01:06:36;96782.28;;;17.49;100.00
55263;BME280;41125;48.752;9.168;2023-07-16T01:07:11;96786.97;;;17.49;100.00
55263;BME280;41125;48.752;9.168;2023-07-16T01:07:49;96789.25;;;17.47;100.00
55263;BME280;41125;48.752;9.168;2023-07-16T01:08:41;96780.44;;;17.41;100.00
55263;BME280;41125;48.752;9.168;2023-07-16T01:09:16;96789.91;;;17.43;100.00
55263;BME280;41125;48.752;9.168;2023-07-16T01:09:48;96791.53;;;17.45;100.00
55263;BME280;41125;48.752;9.168;2023-07-16T01:10:20;96787.63;;;17.46;100.00
55263;BME280;41125;48.752;9.168;2023-07-16T01:10:54;96786.84;;;17.45;100.00
55263;BME280;41125;48.752;9.168;2023-07-16T01:11:27;96791.53;;;17.45;100.00
55263;BME280;41125;48.752;9.168;2023-07-16T01:12:00;96794.59;;;17.43;100.00
55263;BME280;41125;48.752;9.168;2023-07-16T01:12:32;96789.91;;;17.43;100.00
55263;BME280;41125;48.752;9.168;2023-07-16T01:13:04;96788.44;;;17.46;100.00
55263;BME280;41125;48.752;9.168;2023-07-16T01:13:37;96800.34;;;17.50;100.00
55263;BME280;41125;48.752;9.168;2023-07-16T01:14:08;96802.41;;;17.53;100.00
55263;BME280;41125;48.752;9.168;2023-07-16T01:14:41;96807.22;;;17.56;100.00
55263;BME280;41125;48.752;9.168;2023-07-16T01:15:13;96804.94;;;17.58;100.00
55263;BME280;41125;48.752;9.168;2023-07-16T01:15:44;96804.12;;;17.58;100.00
55263;BME280;41125;48.752;9.168;2023-07-16T01:16:23;96803.00;;;17.59;100.00
55263;BME280;41125;48.752;9.168;2023-07-16T01:16:54;96804.59;;;17.60;100.00
55263;BME280;41125;48.752;9.168;2023-07-16T01:17:33;96804.59;;;17.60;100.00
55263;BME280;41125;48.752;9.168;2023-07-16T01:18:05;96800.59;;;17.57;100.00
55263;BME280;41125;48.752;9.168;2023-07-16T01:18:36;96802.19;;;17.58;100.00
55263;BME280;41125;48.752;9.168;2023-07-16T01:19:08;96806.87;;;17.58;100.00
55263;BME280;41125;48.752;9.168;2023-07-16T01:19:39;96809.16;;;17.56;100.00
55263;BME280;41125;48.752;9.168;2023-07-16T01:20:11;96815.09;;;17.58;100.00
55263;BME280;41125;48.752;9.168;2023-07-16T01:20:42;96805.28;;;17.57;100.00
55263;BME280;41125;48.752;9.168;2023-07-16T01:21:15;96809.03;;;17.52;100.00
55263;BME280;41125;48.752;9.168;2023-07-16T01:23:13;96812.31;;;17.46;100.00
55263;BME280;41125;48.752;9.168;2023-07-16T01:25:01;96814.69;;;17.35;100.00
55263;BME280;41125;48.752;9.168;2023-07-16T01:26:18;96813.66;;;17.27;100.00
55263;BME280;41125;48.752;9.168;2023-07-16T01:28:53;96809.44;;;17.30;100.00
55263;BME280;41125;48.752;9.168;2023-07-16T01:29:38;96806.13;;;17.36;100.00
55263;BME280;41125;48.752;9.168;2023-07-16T01:30:15;96811.59;;;17.36;100.00
55263;BME280;41125;48.752;9.168;2023-07-16T01:30:47;96814.69;;;17.35;100.00
55263;BME280;41125;48.752;9.168;2023-07-16T01:31:20;96818.47;;;17.30;100.00
55263;BME280;41125;48.752;9.168;2023-07-16T01:31:55;96826.22;;;17.28;100.00
55263;BME280;41125;48.752;9.168;2023-07-16T01:32:29;96824.97;;;17.38;100.00
55263;BME280;41125;48.752;9.168;2023-07-16T01:33:02;96820.81;;;17.53;100.00
55263;BME280;41125;48.752;9.168;2023-07-16T01:33:35;96820.91;;;17.44;100.00
55263;BME280;41125;48.752;9.168;2023-07-16T01:34:09;96818.69;;;17.37;100.00
55263;BME280;41125;48.752;9.168;2023-07-16T01:34:41;96816.06;;;17.29;100.00
55263;BME280;41125;48.752;9.168;2023-07-16T01:35:13;96816.47;;;17.19;100.00
55263;BME280;41125;48.752;9.168;2023-07-16T01:35:47;96828.91;;;17.16;100.00
55263;BME280;41125;48.752;9.168;2023-07-16T01:36:20;96814.75;;;17.14;100.00
55263;BME280;41125;48.752;9.168;2023-07-16T01:36:52;96818.28;;;17.15;100.00
55263;BME280;41125;48.752;9.168;2023-07-16T01:37:24;96821.69;;;17.12;100.00
55263;BME280;41125;48.752;9.168;2023-07-16T01:37:55;96819.69;;;17.00;100.00
55263;BME280;41125;48.752;9.168;2023-07-16T01:38:26;96819.12;;;16.94;100.00
55263;BME280;41125;48.752;9.168;2023-07-16T01:38:58;96817.06;;;16.91;100.00
55263;BME280;41125;48.752;9.168;2023-07-16T01:39:30;96826.41;;;16.90;100.00
55263;BME280;41125;48.752;9.168;2023-07-16T01:40:06;96821.13;;;16.85;100.00
55263;BME280;41125;48.752;9.168;2023-07-16T01:40:39;96821.19;;;16.77;100.00
55263;BME280;41125;48.752;9.168;2023-07-16T01:41:11;96818.78;;;16.75;100.00
55263;BME280;41125;48.752;9.168;2023-07-16T01:41:43;96815.56;;;16.73;100.00
55263;BME280;41125;48.752;9.168;2023-07-16T01:42:14;96826.19;;;16.74;100.00
55263;BME280;41125;48.752;9.168;2023-07-16T01:42:45;96825.41;;;16.74;100.00
55263;BME280;41125;48.752;9.168;2023-07-16T01:43:17;96826.41;;;16.69;100.00
55263;BME280;41125;48.752;9.168;2023-07-16T01:43:48;96829.59;;;16.71;100.00
55263;BME280;41125;48.752;9.168;2023-07-16T01:44:19;96810.44;;;16.71;100.00
55263;BME280;41125;48.752;9.168;2023-07-16T01:44:51;96807.03;;;16.74;100.00
55263;BME280;41125;48.752;9.168;2023-07-16T01:45:22;96810.91;;;16.73;100.00
55263;BME280;41125;48.752;9.168;2023-07-16T01:45:54;96806.75;;;16.67;100.00
55263;BME280;41125;48.752;9.168;2023-07-16T01:46:26;96805.59;;;16.68;100.00
55263;BME280;41125;48.752;9.168;2023-07-16T01:47:19;96809.16;;;16.69;100.00
55263;BME280;41125;48.752;9.168;2023-07-16T01:49:16;96806.56;;;16.72;100.00
55263;BME280;41125;48.752;9.168;2023-07-16T01:49:47;96808.22;;;16.65;100.00
55263;BME280;41125;48.752;9.168;2023-07-16T01:50:19;96804.41;;;16.57;100.00
55263;BME280;41125;48.752;9.168;2023-07-16T01:50:51;96810.06;;;16.52;100.00
55263;BME280;41125;48.752;9.168;2023-07-16T01:51:22;96801.72;;;16.49;100.00
55263;BME280;41125;48.752;9.168;2023-07-16T01:51:53;96802.19;;;16.51;100.00
55263;BME280;41125;48.752;9.168;2023-07-16T01:52:25;96809.25;;;16.52;100.00
55263;BME280;41125;48.752;9.168;2023-07-16T01:52:57;96806.19;;;16.53;100.00
55263;BME280;41125;48.752;9.168;2023-07-16T01:53:28;96807.53;;;16.47;100.00
55263;BME280;41125;48.752;9.168;2023-07-16T01:53:59;96788.34;;;16.47;100.00
55263;BME280;41125;48.752;9.168;2023-07-16T01:54:30;96790.28;;;16.47;100.00
55263;BME280;41125;48.752;9.168;2023-07-16T01:55:02;96794.50;;;16.44;100.00
55263;BME280;41125;48.752;9.168;2023-07-16T01:55:33;96790.28;;;16.47;100.00
55263;BME280;41125;48.752;9.168;2023-07-16T01:56:04;96791.75;;;16.44;100.00
55263;BME280;41125;48.752;9.168;2023-07-16T01:56:36;96790.00;;;16.39;100.00
55263;BME280;41125;48.752;9.168;2023-07-16T01:57:07;96794.22;;;16.37;100.00
55263;BME280;41125;48.752;9.168;2023-07-16T01:57:38;96796.28;;;16.40;100.00
55263;BME280;41125;48.752;9.168;2023-07-16T01:58:11;96801.75;;;16.40;100.00
55263;BME280;41125;48.752;9.168;2023-07-16T01:58:42;96804.84;;;16.38;100.00
55263;BME280;41125;48.752;9.168;2023-07-16T01:59:13;96795.81;;;16.38;100.00
55263;BME280;41125;48.752;9.168;2023-07-16T01:59:44;96803.69;;;16.39;100.00
55263;BME280;41125;48.752;9.168;2023-07-16T02:00:17;96801.75;;;16.40;100.00
55263;BME280;41125;48.752;9.168;2023-07-16T02:00:50;96804.97;;;16.42;100.00
55263;BME280;41125;48.752;9.168;2023-07-16T02:01:21;96802.03;;;16.47;100.00
55263;BME280;41125;48.752;9.168;2023-07-16T02:01:53;96808.78;;;16.50;100.00
55263;BME280;41125;48.752;9.168;2023-07-16T02:02:24;96812.34;;;16.50;100.00
55263;BME280;41125;48.752;9.168;2023-07-16T02:02:55;96804.72;;;16.56;100.00
55263;BME280;41125;48.752;9.168;2023-07-16T02:03:26;96807.13;;;16.57;100.00
55263;BME280;41125;48.752;9.168;2023-07-16T02:03:57;96809.41;;;16.55;100.00
55263;BME280;41125;48.752;9.168;2023-07-16T02:04:28;96810.22;;;16.56;100.00
55263;BME280;41125;48.752;9.168;2023-07-16T02:05:00;96812.63;;;16.57;100.00
55263;BME280;41125;48.752;9.168;2023-07-16T02:05:31;96812.63;;;16.57;100.00
55263;BME280;41125;48.752;9.168;2023-07-16T02:06:02;96813.09;;;16.59;100.00
55263;BME280;41125;48.752;9.168;2023-07-16T02:06:33;96815.16;;;16.62;100.00
55263;BME280;41125;48.752;9.168;2023-07-16T02:07:05;96820.91;;;16.69;100.00
55263;BME280;41125;48.752;9.168;2023-07-16T02:07:36;96819.12;;;16.73;100.00
55263;BME280;41125;48.752;9.168;2023-07-16T02:08:08;96814.91;;;16.76;100.00
55263;BME280;41125;48.752;9.168;2023-07-16T02:08:39;96826.00;;;16.80;100.00
55263;BME280;41125;48.752;9.168;2023-07-16T02:09:10;96812.50;;;16.74;100.00
55263;BME280;41125;48.752;9.168;2023-07-16T02:09:41;96810.62;;;16.66;100.00
55263;BME280;41125;48.752;9.168;2023-07-16T02:10:12;96816.09;;;16.66;100.00
55263;BME280;41125;48.752;9.168;2023-07-16T02:10:45;96809.69;;;16.62;100.00
55263;BME280;41125;48.752;9.168;2023-07-16T02:11:17;96802.94;;;16.60;100.00
55263;BME280;41125;48.752;9.168;2023-07-16T02:11:48;96801.00;;;16.60;100.00
55263;BME280;41125;48.752;9.168;2023-07-16T02:12:20;96803.72;;;16.60;100.00
55263;BME280;41125;48.752;9.168;2023-07-16T02:12:51;96799.84;;;16.61;100.00
55263;BME280;41125;48.752;9.168;2023-07-16T02:13:22;96801.66;;;16.57;100.00
55263;BME280;41125;48.752;9.168;2023-07-16T02:13:53;96802.31;;;16.54;100.00
55263;BME280;41125;48.752;9.168;2023-07-16T02:14:24;96804.59;;;16.52;100.00
55263;BME280;41125;48.752;9.168;2023-07-16T02:14:56;96806.72;;;16.47;100.00
55263;BME280;41125;48.752;9.168;2023-07-16T02:15:27;96804.97;;;16.42;100.00
55263;BME280;41125;48.752;9.168;2023-07-16T02:15:58;96811.09;;;16.39;100.00
55263;BME280;41125;48.752;9.168;2023-07-16T02:16:29;96812.72;;;16.40;100.00
55263;BME280;41125;48.752;9.168;2023-07-16T02:17:00;96813.50;;;16.40;100.00
55263;BME280;41125;48.752;9.168;2023-07-16T02:17:32;96819.78;;;16.41;100.00
55263;BME280;41125;48.752;9.168;2023-07-16T02:18:05;96823.66;;;16.40;100.00
55263;BME280;41125;48.752;9.168;2023-07-16T02:18:37;96824.81;;;16.39;100.00
55263;BME280;41125;48.752;9.168;2023-07-16T02:19:08;96829.81;;;16.37;100.00
55263;BME280;41125;48.752;9.168;2023-07-16T02:19:39;96822.72;;;16.36;100.00
55263;BME280;41125;48.752;9.168;2023-07-16T02:20:11;96812.09;;;16.34;100.00
55263;BME280;41125;48.752;9.168;2023-07-16T02:20:43;96820.66;;;16.33;100.00
55263;BME280;41125;48.752;9.168;2023-07-16T02:21:15;96815.63;;;16.35;100.00
55263;BME280;41125;48.752;9.168;2023-07-16T02:21:46;96811.78;;;16.36;100.00
55263;BME280;41125;48.752;9.168;2023-07-16T02:22:17;96811.09;;;16.39;100.00
55263;BME280;41125;48.752;9.168;2023-07-16T02:22:48;96815.13;;;16.41;100.00
55263;BME280;41125;48.752;9.168;2023-07-16T02:23:19;96819.78;;;16.41;100.00
55263;BME280;41125;48.752;9.168;2023-07-16T02:23:51;96824.81;;;16.39;100.00
55263;BME280;41125;48.752;9.168;2023-07-16T02:24:22;96833.03;;;16.39;100.00
55263;BME280;41125;48.752;9.168;2023-07-16T02:24:53;96834.62;;;16.40;100.00
55263;BME280;41125;48.752;9.168;2023-07-16T02:25:25;96836.22;;;16.41;100.00
55263;BME280;41125;48.752;9.168;2023-07-16T02:25:56;96838.63;;;16.42;100.00
55263;BME280;41125;48.752;9.168;2023-07-16T02:26:30;96840.91;;;16.40;100.00
55263;BME280;41125;48.752;9.168;2023-07-16T02:27:02;96843.31;;;16.42;100.00
55263;BME280;41125;48.752;9.168;2023-07-16T02:27:34;96843.31;;;16.42;100.00
55263;BME280;41125;48.752;9.168;2023-07-16T02:28:05;96840.56;;;16.42;100.00
55263;BME280;41125;48.752;9.168;2023-07-16T02:28:36;96836.69;;;16.43;100.00
55263;BME280;41125;48.752;9.168;2023-07-16T02:29:08;96847.00;;;16.46;100.00
55263;BME280;41125;48.752;9.168;2023-07-16T02:29:39;96841.84;;;16.45;100.00
55263;BME280;41125;48.752;9.168;2023-07-16T02:30:11;96843.31;;;16.42;100.00
55263;BME280;41125;48.752;9.168;2023-07-16T02:30:43;96841.84;;;16.45;100.00
55263;BME280;41125;48.752;9.168;2023-07-16T02:31:14;96834.91;;;16.47;100.00
55263;BME280;41125;48.752;9.168;2023-07-16T02:31:45;96841.50;;;16.46;100.00
55263;BME280;41125;48.752;9.168;2023-07-16T02:32:19;96839.44;;;16.43;100.00
55263;BME280;41125;48.752;9.168;2023-07-16T02:32:50;96830.75;;;16.41;100.00
55263;BME280;41125;48.752;9.168;2023-07-16T02:33:21;96831.88;;;16.40;100.00
55263;BME280;41125;48.752;9.168;2023-07-16T02:33:52;96824.50;;;16.32;100.00
55263;BME280;41125;48.752;9.168;2023-07-16T02:34:24;96823.37;;;16.33;100.00
55263;BME280;41125;48.752;9.168;2023-07-16T02:34:55;96823.19;;;16.38;100.00
55263;BME280;41125;48.752;9.168;2023-07-16T02:35:26;96818.06;;;16.36;100.00
55263;BME280;41125;48.752;9.168;2023-07-16T02:35:57;96825.47;;;16.36;100.00
55263;BME280;41125;48.752;9.168;2023-07-16T02:36:32;96823.19;;;16.38;100.00
55263;BME280;41125;48.752;9.168;2023-07-16T02:37:04;96822.87;;;16.39;100.00
55263;BME280;41125;48.752;9.168;2023-07-16T02:37:36;96818.38;;;16.35;100.00
55263;BME280;41125;48.752;9.168;2023-07-16T02:38:07;96833.97;;;16.43;100.00
55263;BME280;41125;48.752;9.168;2023-07-16T02:38:38;96833.31;;;16.46;100.00
55263;BME280;41125;48.752;9.168;2023-07-16T02:39:09;96838.97;;;16.41;100.00
55263;BME280;41125;48.752;9.168;2023-07-16T02:39:42;96836.22;;;16.41;100.00
55263;BME280;41125;48.752;9.168;2023-07-16T02:40:14;96840.09;;;16.40;100.00
55263;BME280;41125;48.752;9.168;2023-07-16T02:40:46;96835.44;;;16.40;100.00
55263;BME280;41125;48.752;9.168;2023-07-16T02:41:18;96835.09;;;16.42;100.00
55263;BME280;41125;48.752;9.168;2023-07-16T02:41:49;96834.09;;;16.47;100.00
55263;BME280;41125;48.752;9.168;2023-07-16T02:42:20;96838.13;;;16.49;100.00
55263;BME280;41125;48.752;9.168;2023-07-16T02:42:51;96836.50;;;16.48;100.00
55263;BME280;41125;48.752;9.168;2023-07-16T02:43:23;96836.50;;;16.48;100.00
55263;BME280;41125;48.752;9.168;2023-07-16T02:44:03;96837.66;;;16.47;100.00
55263;BME280;41125;48.752;9.168;2023-07-16T02:44:35;96829.63;;;16.42;100.00
55263;BME280;41125;48.752;9.168;2023-07-16T02:45:09;96833.16;;;16.42;100.00
55263;BME280;41125;48.752;9.168;2023-07-16T02:45:41;96837.19;;;16.45;100.00
55263;BME280;41125;48.752;9.168;2023-07-16T02:46:12;96837.84;;;16.42;100.00
55263;BME280;41125;48.752;9.168;2023-07-16T02:46:44;96831.41;;;16.38;100.00
55263;BME280;41125;48.752;9.168;2023-07-16T02:47:15;96841.22;;;16.39;100.00
55263;BME280;41125;48.752;9.168;2023-07-16T02:47:48;96847.84;;;16.38;100.00
55263;BME280;41125;48.752;9.168;2023-07-16T02:48:19;96843.81;;;16.35;100.00
55263;BME280;41125;48.752;9.168;2023-07-16T02:48:50;96858.97;;;16.33;100.00
55263;BME280;41125;48.752;9.168;2023-07-16T02:49:22;96851.91;;;16.32;100.00
55263;BME280;41125;48.752;9.168;2023-07-16T02:49:53;96846.63;;;16.27;100.00
55263;BME280;41125;48.752;9.168;2023-07-16T02:50:24;96852.13;;;16.27;100.00
55263;BME280;41125;48.752;9.168;2023-07-16T02:50:55;96847.28;;;16.24;100.00
55263;BME280;41125;48.752;9.168;2023-07-16T02:51:28;96853.09;;;16.22;100.00
55263;BME280;41125;48.752;9.168;2023-07-16T02:51:59;96855.50;;;16.24;100.00
55263;BME280;41125;48.752;9.168;2023-07-16T02:52:31;96850.50;;;16.26;100.00
55263;BME280;41125;48.752;9.168;2023-07-16T02:53:03;96852.13;;;16.27;100.00
55263;BME280;41125;48.752;9.168;2023-07-16T02:53:35;96849.69;;;16.25;100.00
55263;BME280;41125;48.752;9.168;2023-07-16T02:54:06;96857.59;;;16.27;100.00
55263;BME280;41125;48.752;9.168;2023-07-16T02:54:37;96855.28;;;16.29;100.00
55263;BME280;41125;48.752;9.168;2023-07-16T02:55:10;96857.78;;;16.22;100.00
55263;BME280;41125;48.752;9.168;2023-07-16T02:55:41;96856.81;;;16.18;100.00